Terminal Aerodrome Forecast
Issued by NWS

Home | Current Version | Previous Version | Text Only | Print | Product List | Glossary On
Versions: 1 2 3 4 5 6 7 8 9 10 11 12
000
FTUS45 KVEF 181120
TAFHND
TAF
KHND 181120Z 1812/1912 17006KT P6SM BKN250
     FM181900 02006KT P6SM SCT120 BKN150
     FM190300 18006KT P6SM SCT150=

USA.gov is the U.S. government's official web portal to all federal, state and local government web resources and services.